sensor_id;sensor_type;location;lat;lon;timestamp;P1;durP1;ratioP1;P2;durP2;ratioP2
39956;SDS011;48483;44.640;7.494;2024-03-02T00:00:20;11.15;;;8.80;;
39956;SDS011;48483;44.640;7.494;2024-03-02T00:02:47;10.63;;;8.23;;
39956;SDS011;48483;44.640;7.494;2024-03-02T00:05:17;11.15;;;8.93;;
39956;SDS011;48483;44.640;7.494;2024-03-02T00:07:45;10.20;;;8.70;;
39956;SDS011;48483;44.640;7.494;2024-03-02T00:10:16;10.55;;;8.38;;
39956;SDS011;48483;44.640;7.494;2024-03-02T00:15:20;10.30;;;6.95;;
39956;SDS011;48483;44.640;7.494;2024-03-02T00:18:11;11.15;;;8.35;;
39956;SDS011;48483;44.640;7.494;2024-03-02T00:20:40;11.05;;;7.85;;
39956;SDS011;48483;44.640;7.494;2024-03-02T00:23:07;11.63;;;8.38;;
39956;SDS011;48483;44.640;7.494;2024-03-02T00:25:38;14.48;;;9.57;;
39956;SDS011;48483;44.640;7.494;2024-03-02T00:28:16;13.20;;;9.43;;
39956;SDS011;48483;44.640;7.494;2024-03-02T00:33:30;13.15;;;9.25;;
39956;SDS011;48483;44.640;7.494;2024-03-02T00:36:00;13.40;;;10.02;;
39956;SDS011;48483;44.640;7.494;2024-03-02T00:38:29;14.55;;;10.38;;
39956;SDS011;48483;44.640;7.494;2024-03-02T00:40:57;14.82;;;9.90;;
39956;SDS011;48483;44.640;7.494;2024-03-02T00:46:29;16.05;;;10.82;;
39956;SDS011;48483;44.640;7.494;2024-03-02T00:49:00;14.40;;;10.45;;
39956;SDS011;48483;44.640;7.494;2024-03-02T00:51:29;13.40;;;9.13;;
39956;SDS011;48483;44.640;7.494;2024-03-02T00:53:58;15.10;;;10.53;;
39956;SDS011;48483;44.640;7.494;2024-03-02T00:56:25;14.25;;;9.98;;
39956;SDS011;48483;44.640;7.494;2024-03-02T00:58:52;16.75;;;10.02;;
39956;SDS011;48483;44.640;7.494;2024-03-02T01:01:19;15.90;;;10.48;;
39956;SDS011;48483;44.640;7.494;2024-03-02T01:03:47;17.30;;;11.38;;
39956;SDS011;48483;44.640;7.494;2024-03-02T01:06:14;17.35;;;11.63;;
39956;SDS011;48483;44.640;7.494;2024-03-02T01:08:43;14.57;;;10.13;;
39956;SDS011;48483;44.640;7.494;2024-03-02T01:11:10;18.13;;;9.95;;
39956;SDS011;48483;44.640;7.494;2024-03-02T01:13:37;15.90;;;10.85;;
39956;SDS011;48483;44.640;7.494;2024-03-02T01:16:04;13.13;;;10.00;;
39956;SDS011;48483;44.640;7.494;2024-03-02T01:18:31;14.23;;;9.52;;
39956;SDS011;48483;44.640;7.494;2024-03-02T01:20:58;15.57;;;11.93;;
39956;SDS011;48483;44.640;7.494;2024-03-02T01:23:25;16.20;;;10.23;;
39956;SDS011;48483;44.640;7.494;2024-03-02T01:25:53;15.13;;;10.65;;
39956;SDS011;48483;44.640;7.494;2024-03-02T01:28:20;13.75;;;10.30;;
39956;SDS011;48483;44.640;7.494;2024-03-02T01:30:47;14.15;;;10.82;;
39956;SDS011;48483;44.640;7.494;2024-03-02T01:33:15;15.15;;;10.32;;
39956;SDS011;48483;44.640;7.494;2024-03-02T01:35:42;12.98;;;10.38;;
39956;SDS011;48483;44.640;7.494;2024-03-02T01:38:09;12.80;;;9.60;;
39956;SDS011;48483;44.640;7.494;2024-03-02T01:40:36;15.07;;;11.32;;
39956;SDS011;48483;44.640;7.494;2024-03-02T01:43:05;14.50;;;10.32;;
39956;SDS011;48483;44.640;7.494;2024-03-02T01:45:32;15.20;;;11.57;;
39956;SDS011;48483;44.640;7.494;2024-03-02T01:47:59;15.68;;;12.18;;
39956;SDS011;48483;44.640;7.494;2024-03-02T01:50:26;13.88;;;10.13;;
39956;SDS011;48483;44.640;7.494;2024-03-02T01:52:53;13.38;;;10.30;;
39956;SDS011;48483;44.640;7.494;2024-03-02T01:55:21;13.93;;;10.82;;
39956;SDS011;48483;44.640;7.494;2024-03-02T01:57:47;12.63;;;9.30;;
39956;SDS011;48483;44.640;7.494;2024-03-02T02:00:16;13.18;;;10.25;;
39956;SDS011;48483;44.640;7.494;2024-03-02T02:02:44;13.63;;;10.00;;
39956;SDS011;48483;44.640;7.494;2024-03-02T02:05:10;16.13;;;11.88;;
39956;SDS011;48483;44.640;7.494;2024-03-02T02:07:37;15.65;;;11.73;;
39956;SDS011;48483;44.640;7.494;2024-03-02T02:10:04;14.02;;;11.07;;
39956;SDS011;48483;44.640;7.494;2024-03-02T02:12:32;14.98;;;10.40;;
39956;SDS011;48483;44.640;7.494;2024-03-02T02:14:59;16.20;;;11.15;;
39956;SDS011;48483;44.640;7.494;2024-03-02T02:17:27;14.65;;;11.23;;
39956;SDS011;48483;44.640;7.494;2024-03-02T02:19:54;16.27;;;12.52;;
39956;SDS011;48483;44.640;7.494;2024-03-02T02:22:22;14.32;;;10.35;;
39956;SDS011;48483;44.640;7.494;2024-03-02T02:24:49;15.32;;;11.70;;
39956;SDS011;48483;44.640;7.494;2024-03-02T02:27:16;16.40;;;11.68;;
39956;SDS011;48483;44.640;7.494;2024-03-02T02:29:42;14.95;;;11.52;;
39956;SDS011;48483;44.640;7.494;2024-03-02T02:32:09;16.80;;;12.10;;
39956;SDS011;48483;44.640;7.494;2024-03-02T02:34:36;17.67;;;12.45;;
39956;SDS011;48483;44.640;7.494;2024-03-02T02:37:02;16.23;;;11.90;;
39956;SDS011;48483;44.640;7.494;2024-03-02T02:39:31;17.55;;;12.10;;
39956;SDS011;48483;44.640;7.494;2024-03-02T02:41:57;17.98;;;11.75;;
39956;SDS011;48483;44.640;7.494;2024-03-02T02:44:26;16.15;;;11.77;;
39956;SDS011;48483;44.640;7.494;2024-03-02T02:46:53;15.45;;;11.00;;
39956;SDS011;48483;44.640;7.494;2024-03-02T02:49:19;16.48;;;11.63;;
39956;SDS011;48483;44.640;7.494;2024-03-02T02:51:46;17.35;;;11.50;;
39956;SDS011;48483;44.640;7.494;2024-03-02T02:54:13;21.13;;;12.60;;
39956;SDS011;48483;44.640;7.494;2024-03-02T02:56:41;16.25;;;12.23;;
39956;SDS011;48483;44.640;7.494;2024-03-02T02:59:08;15.45;;;12.35;;
39956;SDS011;48483;44.640;7.494;2024-03-02T03:01:34;14.70;;;10.95;;
39956;SDS011;48483;44.640;7.494;2024-03-02T03:04:01;19.48;;;13.88;;
39956;SDS011;48483;44.640;7.494;2024-03-02T03:06:28;16.27;;;12.10;;
39956;SDS011;48483;44.640;7.494;2024-03-02T03:08:55;15.07;;;12.75;;
39956;SDS011;48483;44.640;7.494;2024-03-02T03:11:22;16.20;;;11.57;;
39956;SDS011;48483;44.640;7.494;2024-03-02T03:13:52;17.05;;;12.05;;
39956;SDS011;48483;44.640;7.494;2024-03-02T03:16:20;14.98;;;12.30;;
39956;SDS011;48483;44.640;7.494;2024-03-02T03:18:47;16.27;;;12.27;;
39956;SDS011;48483;44.640;7.494;2024-03-02T03:21:16;14.30;;;10.27;;
39956;SDS011;48483;44.640;7.494;2024-03-02T03:23:42;16.58;;;12.20;;
39956;SDS011;48483;44.640;7.494;2024-03-02T03:26:09;14.40;;;10.18;;
39956;SDS011;48483;44.640;7.494;2024-03-02T03:28:36;14.68;;;11.10;;
39956;SDS011;48483;44.640;7.494;2024-03-02T03:31:04;13.63;;;9.75;;
39956;SDS011;48483;44.640;7.494;2024-03-02T03:33:31;12.30;;;9.85;;
39956;SDS011;48483;44.640;7.494;2024-03-02T03:35:57;11.15;;;8.88;;
39956;SDS011;48483;44.640;7.494;2024-03-02T03:38:24;12.18;;;9.10;;
39956;SDS011;48483;44.640;7.494;2024-03-02T03:40:51;12.48;;;9.48;;
39956;SDS011;48483;44.640;7.494;2024-03-02T03:43:17;10.93;;;8.30;;
39956;SDS011;48483;44.640;7.494;2024-03-02T03:45:44;10.68;;;7.13;;
39956;SDS011;48483;44.640;7.494;2024-03-02T03:48:12;9.48;;;7.10;;
39956;SDS011;48483;44.640;7.494;2024-03-02T03:50:39;11.18;;;7.15;;
39956;SDS011;48483;44.640;7.494;2024-03-02T03:53:05;10.20;;;7.80;;
39956;SDS011;48483;44.640;7.494;2024-03-02T03:55:32;11.20;;;8.65;;
39956;SDS011;48483;44.640;7.494;2024-03-02T03:57:59;13.00;;;8.02;;
39956;SDS011;48483;44.640;7.494;2024-03-02T04:00:26;12.63;;;9.25;;
39956;SDS011;48483;44.640;7.494;2024-03-02T04:02:53;10.02;;;8.00;;
39956;SDS011;48483;44.640;7.494;2024-03-02T04:05:21;11.18;;;7.90;;
39956;SDS011;48483;44.640;7.494;2024-03-02T04:07:47;10.07;;;6.95;;
39956;SDS011;48483;44.640;7.494;2024-03-02T04:10:14;8.48;;;6.28;;
39956;SDS011;48483;44.640;7.494;2024-03-02T04:12:43;7.40;;;4.90;;
39956;SDS011;48483;44.640;7.494;2024-03-02T04:15:09;6.55;;;4.50;;
39956;SDS011;48483;44.640;7.494;2024-03-02T04:17:36;6.65;;;4.82;;
39956;SDS011;48483;44.640;7.494;2024-03-02T04:20:03;5.60;;;4.03;;
39956;SDS011;48483;44.640;7.494;2024-03-02T04:22:34;5.25;;;3.85;;
39956;SDS011;48483;44.640;7.494;2024-03-02T04:25:01;5.88;;;3.97;;
39956;SDS011;48483;44.640;7.494;2024-03-02T04:27:30;6.93;;;4.70;;
39956;SDS011;48483;44.640;7.494;2024-03-02T04:29:59;6.32;;;4.45;;
39956;SDS011;48483;44.640;7.494;2024-03-02T04:32:26;6.75;;;4.43;;
39956;SDS011;48483;44.640;7.494;2024-03-02T04:34:53;6.43;;;4.18;;
39956;SDS011;48483;44.640;7.494;2024-03-02T04:37:20;5.90;;;4.50;;
39956;SDS011;48483;44.640;7.494;2024-03-02T04:39:48;6.57;;;4.57;;
39956;SDS011;48483;44.640;7.494;2024-03-02T04:42:15;7.80;;;4.57;;
39956;SDS011;48483;44.640;7.494;2024-03-02T04:44:42;6.32;;;4.38;;
39956;SDS011;48483;44.640;7.494;2024-03-02T04:47:08;7.75;;;5.30;;
39956;SDS011;48483;44.640;7.494;2024-03-02T04:49:35;6.97;;;4.78;;
39956;SDS011;48483;44.640;7.494;2024-03-02T04:52:02;6.25;;;4.38;;
39956;SDS011;48483;44.640;7.494;2024-03-02T04:54:29;6.82;;;4.28;;
39956;SDS011;48483;44.640;7.494;2024-03-02T04:56:57;6.43;;;4.50;;
39956;SDS011;48483;44.640;7.494;2024-03-02T04:59:24;7.13;;;4.80;;
39956;SDS011;48483;44.640;7.494;2024-03-02T05:01:51;5.45;;;4.00;;
39956;SDS011;48483;44.640;7.494;2024-03-02T05:04:18;5.43;;;4.30;;
39956;SDS011;48483;44.640;7.494;2024-03-02T05:06:44;6.30;;;4.45;;
39956;SDS011;48483;44.640;7.494;2024-03-02T05:09:18;6.10;;;4.10;;
39956;SDS011;48483;44.640;7.494;2024-03-02T05:11:44;6.63;;;4.53;;
39956;SDS011;48483;44.640;7.494;2024-03-02T05:14:26;6.88;;;4.68;;
39956;SDS011;48483;44.640;7.494;2024-03-02T05:16:54;8.13;;;4.90;;
39956;SDS011;48483;44.640;7.494;2024-03-02T05:19:20;7.20;;;5.43;;
39956;SDS011;48483;44.640;7.494;2024-03-02T05:21:47;7.30;;;4.80;;
39956;SDS011;48483;44.640;7.494;2024-03-02T05:24:14;6.82;;;4.07;;
39956;SDS011;48483;44.640;7.494;2024-03-02T05:26:41;6.82;;;4.50;;
39956;SDS011;48483;44.640;7.494;2024-03-02T05:29:07;7.10;;;4.57;;
39956;SDS011;48483;44.640;7.494;2024-03-02T05:31:35;6.65;;;4.50;;
39956;SDS011;48483;44.640;7.494;2024-03-02T05:34:02;5.80;;;3.78;;
39956;SDS011;48483;44.640;7.494;2024-03-02T05:36:29;6.35;;;4.50;;
39956;SDS011;48483;44.640;7.494;2024-03-02T05:38:56;6.95;;;4.25;;
39956;SDS011;48483;44.640;7.494;2024-03-02T05:41:22;6.47;;;4.32;;
39956;SDS011;48483;44.640;7.494;2024-03-02T05:43:49;6.85;;;4.72;;
39956;SDS011;48483;44.640;7.494;2024-03-02T05:46:16;7.68;;;5.15;;
39956;SDS011;48483;44.640;7.494;2024-03-02T05:48:44;5.90;;;3.92;;
39956;SDS011;48483;44.640;7.494;2024-03-02T05:51:10;7.00;;;4.30;;
39956;SDS011;48483;44.640;7.494;2024-03-02T05:53:37;5.93;;;3.90;;
39956;SDS011;48483;44.640;7.494;2024-03-02T05:56:04;8.55;;;4.75;;
39956;SDS011;48483;44.640;7.494;2024-03-02T05:58:31;7.22;;;4.65;;
39956;SDS011;48483;44.640;7.494;2024-03-02T06:01:17;6.13;;;4.32;;
39956;SDS011;48483;44.640;7.494;2024-03-02T06:03:49;6.93;;;4.13;;
39956;SDS011;48483;44.640;7.494;2024-03-02T06:06:16;6.70;;;4.22;;
39956;SDS011;48483;44.640;7.494;2024-03-02T06:08:43;6.15;;;4.00;;
39956;SDS011;48483;44.640;7.494;2024-03-02T06:11:09;5.57;;;4.50;;
39956;SDS011;48483;44.640;7.494;2024-03-02T06:13:36;6.32;;;4.13;;
39956;SDS011;48483;44.640;7.494;2024-03-02T06:16:03;5.97;;;3.67;;
39956;SDS011;48483;44.640;7.494;2024-03-02T06:18:30;6.22;;;3.85;;
39956;SDS011;48483;44.640;7.494;2024-03-02T06:20:58;5.95;;;3.80;;
39956;SDS011;48483;44.640;7.494;2024-03-02T06:23:26;8.10;;;4.63;;
39956;SDS011;48483;44.640;7.494;2024-03-02T06:25:53;6.47;;;4.20;;
39956;SDS011;48483;44.640;7.494;2024-03-02T06:28:20;7.28;;;4.20;;
39956;SDS011;48483;44.640;7.494;2024-03-02T06:30:47;7.90;;;4.25;;
39956;SDS011;48483;44.640;7.494;2024-03-02T06:33:13;8.30;;;4.53;;
39956;SDS011;48483;44.640;7.494;2024-03-02T06:35:40;9.85;;;4.20;;
39956;SDS011;48483;44.640;7.494;2024-03-02T06:38:08;7.18;;;4.45;;
39956;SDS011;48483;44.640;7.494;2024-03-02T06:40:35;6.47;;;4.47;;
39956;SDS011;48483;44.640;7.494;2024-03-02T06:43:05;7.35;;;4.85;;
39956;SDS011;48483;44.640;7.494;2024-03-02T06:45:32;7.00;;;4.20;;
39956;SDS011;48483;44.640;7.494;2024-03-02T06:48:00;7.95;;;5.05;;
39956;SDS011;48483;44.640;7.494;2024-03-02T06:50:27;6.07;;;4.03;;
39956;SDS011;48483;44.640;7.494;2024-03-02T06:52:54;7.30;;;4.60;;
39956;SDS011;48483;44.640;7.494;2024-03-02T06:55:23;6.30;;;4.45;;
39956;SDS011;48483;44.640;7.494;2024-03-02T06:57:52;6.78;;;4.15;;
39956;SDS011;48483;44.640;7.494;2024-03-02T07:00:19;6.88;;;4.38;;
39956;SDS011;48483;44.640;7.494;2024-03-02T07:02:46;8.63;;;5.03;;
39956;SDS011;48483;44.640;7.494;2024-03-02T07:05:13;6.47;;;5.10;;
39956;SDS011;48483;44.640;7.494;2024-03-02T07:07:40;6.68;;;4.97;;
39956;SDS011;48483;44.640;7.494;2024-03-02T07:10:07;8.52;;;5.80;;
39956;SDS011;48483;44.640;7.494;2024-03-02T07:12:35;10.32;;;5.80;;
39956;SDS011;48483;44.640;7.494;2024-03-02T07:15:02;10.63;;;7.85;;
39956;SDS011;48483;44.640;7.494;2024-03-02T07:17:31;11.02;;;6.72;;
39956;SDS011;48483;44.640;7.494;2024-03-02T07:19:58;11.05;;;6.22;;
39956;SDS011;48483;44.640;7.494;2024-03-02T07:22:24;8.27;;;5.75;;
39956;SDS011;48483;44.640;7.494;2024-03-02T07:24:51;7.50;;;4.95;;
39956;SDS011;48483;44.640;7.494;2024-03-02T07:27:18;10.45;;;5.22;;
39956;SDS011;48483;44.640;7.494;2024-03-02T07:29:46;6.22;;;4.03;;
39956;SDS011;48483;44.640;7.494;2024-03-02T07:32:13;9.32;;;5.10;;
39956;SDS011;48483;44.640;7.494;2024-03-02T07:34:40;6.18;;;4.20;;
39956;SDS011;48483;44.640;7.494;2024-03-02T07:37:06;7.40;;;4.18;;
39956;SDS011;48483;44.640;7.494;2024-03-02T07:39:33;7.00;;;4.60;;
39956;SDS011;48483;44.640;7.494;2024-03-02T07:42:00;6.20;;;3.83;;
39956;SDS011;48483;44.640;7.494;2024-03-02T07:44:27;6.95;;;4.40;;
39956;SDS011;48483;44.640;7.494;2024-03-02T07:46:55;6.68;;;5.05;;
39956;SDS011;48483;44.640;7.494;2024-03-02T07:49:22;8.45;;;5.85;;
39956;SDS011;48483;44.640;7.494;2024-03-02T07:51:48;9.95;;;7.47;;
39956;SDS011;48483;44.640;7.494;2024-03-02T07:54:15;10.90;;;8.07;;
39956;SDS011;48483;44.640;7.494;2024-03-02T07:56:42;11.77;;;9.07;;
39956;SDS011;48483;44.640;7.494;2024-03-02T07:59:09;11.30;;;7.65;;
39956;SDS011;48483;44.640;7.494;2024-03-02T08:01:35;9.77;;;7.78;;
39956;SDS011;48483;44.640;7.494;2024-03-02T08:04:04;10.60;;;7.72;;
39956;SDS011;48483;44.640;7.494;2024-03-02T08:06:30;11.32;;;8.05;;
39956;SDS011;48483;44.640;7.494;2024-03-02T08:08:58;11.25;;;6.90;;
39956;SDS011;48483;44.640;7.494;2024-03-02T08:11:25;9.50;;;6.85;;
39956;SDS011;48483;44.640;7.494;2024-03-02T08:13:57;9.18;;;6.93;;
39956;SDS011;48483;44.640;7.494;2024-03-02T08:16:23;7.95;;;5.80;;
39956;SDS011;48483;44.640;7.494;2024-03-02T08:18:51;8.13;;;5.05;;
39956;SDS011;48483;44.640;7.494;2024-03-02T08:21:20;8.07;;;4.85;;
39956;SDS011;48483;44.640;7.494;2024-03-02T08:23:46;8.75;;;4.00;;
39956;SDS011;48483;44.640;7.494;2024-03-02T08:26:13;7.07;;;4.05;;
39956;SDS011;48483;44.640;7.494;2024-03-02T08:28:40;9.32;;;4.32;;
39956;SDS011;48483;44.640;7.494;2024-03-02T08:31:07;5.97;;;3.88;;
39956;SDS011;48483;44.640;7.494;2024-03-02T08:33:34;5.32;;;3.55;;
39956;SDS011;48483;44.640;7.494;2024-03-02T08:36:01;4.95;;;3.38;;
39956;SDS011;48483;44.640;7.494;2024-03-02T08:38:30;5.40;;;3.75;;
39956;SDS011;48483;44.640;7.494;2024-03-02T08:40:56;6.25;;;3.30;;
39956;SDS011;48483;44.640;7.494;2024-03-02T08:43:23;4.60;;;3.30;;
39956;SDS011;48483;44.640;7.494;2024-03-02T08:45:50;5.07;;;3.80;;
39956;SDS011;48483;44.640;7.494;2024-03-02T08:48:17;6.70;;;3.95;;
39956;SDS011;48483;44.640;7.494;2024-03-02T08:50:44;7.72;;;4.80;;
39956;SDS011;48483;44.640;7.494;2024-03-02T08:53:11;8.15;;;4.63;;
39956;SDS011;48483;44.640;7.494;2024-03-02T08:55:39;8.35;;;5.35;;
39956;SDS011;48483;44.640;7.494;2024-03-02T08:58:06;14.20;;;6.40;;
39956;SDS011;48483;44.640;7.494;2024-03-02T09:00:33;9.68;;;6.43;;
39956;SDS011;48483;44.640;7.494;2024-03-02T09:03:00;7.78;;;5.22;;
39956;SDS011;48483;44.640;7.494;2024-03-02T09:05:26;10.52;;;5.63;;
39956;SDS011;48483;44.640;7.494;2024-03-02T09:07:53;6.90;;;4.63;;
39956;SDS011;48483;44.640;7.494;2024-03-02T09:10:20;7.78;;;5.25;;
39956;SDS011;48483;44.640;7.494;2024-03-02T09:12:48;9.00;;;5.07;;
39956;SDS011;48483;44.640;7.494;2024-03-02T09:15:15;6.60;;;5.03;;
39956;SDS011;48483;44.640;7.494;2024-03-02T09:17:42;6.80;;;4.63;;
39956;SDS011;48483;44.640;7.494;2024-03-02T09:20:09;5.55;;;3.85;;
39956;SDS011;48483;44.640;7.494;2024-03-02T09:22:37;5.78;;;3.83;;
39956;SDS011;48483;44.640;7.494;2024-03-02T09:25:03;6.10;;;4.07;;
39956;SDS011;48483;44.640;7.494;2024-03-02T09:27:30;5.90;;;3.83;;
39956;SDS011;48483;44.640;7.494;2024-03-02T09:29:59;7.40;;;4.35;;
39956;SDS011;48483;44.640;7.494;2024-03-02T09:32:25;7.22;;;4.68;;
39956;SDS011;48483;44.640;7.494;2024-03-02T09:34:52;5.78;;;3.58;;
39956;SDS011;48483;44.640;7.494;2024-03-02T09:37:19;5.18;;;3.55;;
39956;SDS011;48483;44.640;7.494;2024-03-02T09:39:46;5.88;;;3.97;;
39956;SDS011;48483;44.640;7.494;2024-03-02T09:42:13;6.35;;;3.50;;
39956;SDS011;48483;44.640;7.494;2024-03-02T09:44:40;5.13;;;3.08;;
39956;SDS011;48483;44.640;7.494;2024-03-02T09:47:08;6.43;;;3.92;;
39956;SDS011;48483;44.640;7.494;2024-03-02T09:49:35;6.18;;;3.95;;
39956;SDS011;48483;44.640;7.494;2024-03-02T09:52:02;5.28;;;2.88;;
39956;SDS011;48483;44.640;7.494;2024-03-02T09:54:32;4.57;;;2.80;;
39956;SDS011;48483;44.640;7.494;2024-03-02T09:56:59;3.85;;;2.80;;
39956;SDS011;48483;44.640;7.494;2024-03-02T09:59:46;4.38;;;2.97;;
39956;SDS011;48483;44.640;7.494;2024-03-02T10:02:14;4.88;;;2.88;;
39956;SDS011;48483;44.640;7.494;2024-03-02T10:04:40;4.50;;;3.00;;
39956;SDS011;48483;44.640;7.494;2024-03-02T10:07:11;5.25;;;3.20;;
39956;SDS011;48483;44.640;7.494;2024-03-02T10:09:38;5.65;;;3.25;;
39956;SDS011;48483;44.640;7.494;2024-03-02T10:12:06;7.13;;;3.67;;
39956;SDS011;48483;44.640;7.494;2024-03-02T10:14:33;7.18;;;3.67;;
39956;SDS011;48483;44.640;7.494;2024-03-02T10:17:03;7.00;;;3.55;;
39956;SDS011;48483;44.640;7.494;2024-03-02T10:19:32;7.57;;;3.50;;
39956;SDS011;48483;44.640;7.494;2024-03-02T10:22:00;7.07;;;4.15;;
39956;SDS011;48483;44.640;7.494;2024-03-02T10:24:34;6.63;;;3.80;;
39956;SDS011;48483;44.640;7.494;2024-03-02T10:27:08;4.75;;;3.25;;
39956;SDS011;48483;44.640;7.494;2024-03-02T10:29:36;6.53;;;3.72;;
39956;SDS011;48483;44.640;7.494;2024-03-02T10:34:41;5.13;;;3.58;;
39956;SDS011;48483;44.640;7.494;2024-03-02T10:37:08;5.93;;;3.58;;
39956;SDS011;48483;44.640;7.494;2024-03-02T10:39:37;6.00;;;4.13;;
39956;SDS011;48483;44.640;7.494;2024-03-02T10:42:06;4.80;;;3.55;;
39956;SDS011;48483;44.640;7.494;2024-03-02T10:44:33;4.80;;;3.40;;
39956;SDS011;48483;44.640;7.494;2024-03-02T10:47:00;6.18;;;4.55;;
39956;SDS011;48483;44.640;7.494;2024-03-02T10:49:30;5.43;;;3.70;;
39956;SDS011;48483;44.640;7.494;2024-03-02T10:51:59;6.32;;;3.92;;
39956;SDS011;48483;44.640;7.494;2024-03-02T10:54:26;10.50;;;4.10;;
39956;SDS011;48483;44.640;7.494;2024-03-02T10:56:56;4.82;;;3.55;;
39956;SDS011;48483;44.640;7.494;2024-03-02T10:59:27;5.13;;;3.58;;
39956;SDS011;48483;44.640;7.494;2024-03-02T11:01:57;8.27;;;4.13;;
39956;SDS011;48483;44.640;7.494;2024-03-02T11:04:25;5.55;;;3.72;;
39956;SDS011;48483;44.640;7.494;2024-03-02T11:06:54;6.22;;;3.58;;
39956;SDS011;48483;44.640;7.494;2024-03-02T11:09:27;5.57;;;3.50;;
39956;SDS011;48483;44.640;7.494;2024-03-02T11:11:57;5.20;;;3.35;;
39956;SDS011;48483;44.640;7.494;2024-03-02T11:14:29;5.55;;;3.67;;
39956;SDS011;48483;44.640;7.494;2024-03-02T11:17:00;6.03;;;3.83;;
39956;SDS011;48483;44.640;7.494;2024-03-02T11:19:29;5.97;;;3.78;;
39956;SDS011;48483;44.640;7.494;2024-03-02T11:21:57;7.25;;;4.45;;
39956;SDS011;48483;44.640;7.494;2024-03-02T11:24:34;5.55;;;3.75;;
39956;SDS011;48483;44.640;7.494;2024-03-02T11:27:01;7.65;;;4.70;;
39956;SDS011;48483;44.640;7.494;2024-03-02T11:29:44;5.57;;;3.25;;
39956;SDS011;48483;44.640;7.494;2024-03-02T11:32:15;5.80;;;3.80;;
39956;SDS011;48483;44.640;7.494;2024-03-02T11:34:45;7.95;;;4.85;;
39956;SDS011;48483;44.640;7.494;2024-03-02T11:37:15;6.85;;;4.28;;
39956;SDS011;48483;44.640;7.494;2024-03-02T11:39:45;8.80;;;4.50;;
39956;SDS011;48483;44.640;7.494;2024-03-02T11:42:13;5.47;;;3.95;;
39956;SDS011;48483;44.640;7.494;2024-03-02T11:44:44;6.60;;;4.18;;
39956;SDS011;48483;44.640;7.494;2024-03-02T11:47:13;5.65;;;3.80;;
39956;SDS011;48483;44.640;7.494;2024-03-02T11:49:41;5.70;;;4.22;;
39956;SDS011;48483;44.640;7.494;2024-03-02T11:52:08;6.63;;;3.85;;
39956;SDS011;48483;44.640;7.494;2024-03-02T11:54:37;8.52;;;4.63;;
39956;SDS011;48483;44.640;7.494;2024-03-02T11:57:14;7.80;;;4.15;;
39956;SDS011;48483;44.640;7.494;2024-03-02T11:59:42;6.63;;;4.25;;
39956;SDS011;48483;44.640;7.494;2024-03-02T12:02:14;5.78;;;4.18;;
39956;SDS011;48483;44.640;7.494;2024-03-02T12:04:42;7.40;;;4.03;;
39956;SDS011;48483;44.640;7.494;2024-03-02T12:07:11;7.80;;;4.38;;
39956;SDS011;48483;44.640;7.494;2024-03-02T12:09:38;6.32;;;3.97;;
39956;SDS011;48483;44.640;7.494;2024-03-02T12:12:06;6.13;;;4.10;;
39956;SDS011;48483;44.640;7.494;2024-03-02T12:14:36;5.10;;;3.75;;
39956;SDS011;48483;44.640;7.494;2024-03-02T12:17:04;6.13;;;4.38;;
39956;SDS011;48483;44.640;7.494;2024-03-02T12:19:32;6.28;;;4.38;;
39956;SDS011;48483;44.640;7.494;2024-03-02T12:21:59;5.70;;;3.60;;
39956;SDS011;48483;44.640;7.494;2024-03-02T12:24:27;5.63;;;4.00;;
39956;SDS011;48483;44.640;7.494;2024-03-02T12:26:55;5.45;;;3.78;;
39956;SDS011;48483;44.640;7.494;2024-03-02T12:29:23;5.97;;;3.65;;
39956;SDS011;48483;44.640;7.494;2024-03-02T12:31:54;6.45;;;3.30;;
39956;SDS011;48483;44.640;7.494;2024-03-02T12:34:21;5.32;;;3.58;;
39956;SDS011;48483;44.640;7.494;2024-03-02T12:36:49;5.80;;;3.38;;
39956;SDS011;48483;44.640;7.494;2024-03-02T12:39:18;5.10;;;3.50;;
39956;SDS011;48483;44.640;7.494;2024-03-02T12:41:46;4.47;;;3.60;;
39956;SDS011;48483;44.640;7.494;2024-03-02T12:44:13;4.40;;;2.90;;
39956;SDS011;48483;44.640;7.494;2024-03-02T12:46:39;4.28;;;3.15;;
39956;SDS011;48483;44.640;7.494;2024-03-02T12:49:08;4.63;;;2.65;;
39956;SDS011;48483;44.640;7.494;2024-03-02T12:51:39;5.07;;;3.00;;
39956;SDS011;48483;44.640;7.494;2024-03-02T12:54:07;6.85;;;4.18;;
39956;SDS011;48483;44.640;7.494;2024-03-02T12:56:35;5.72;;;3.53;;
39956;SDS011;48483;44.640;7.494;2024-03-02T12:59:02;4.15;;;2.67;;
39956;SDS011;48483;44.640;7.494;2024-03-02T13:01:29;6.70;;;3.10;;
39956;SDS011;48483;44.640;7.494;2024-03-02T13:03:57;4.43;;;2.80;;
39956;SDS011;48483;44.640;7.494;2024-03-02T13:06:26;8.30;;;2.80;;
39956;SDS011;48483;44.640;7.494;2024-03-02T13:35:50;3.63;;;2.40;;
39956;SDS011;48483;44.640;7.494;2024-03-02T13:38:16;4.30;;;2.72;;
39956;SDS011;48483;44.640;7.494;2024-03-02T13:40:43;5.97;;;3.75;;
39956;SDS011;48483;44.640;7.494;2024-03-02T13:43:10;6.68;;;4.90;;
39956;SDS011;48483;44.640;7.494;2024-03-02T13:45:37;9.20;;;6.45;;
39956;SDS011;48483;44.640;7.494;2024-03-02T13:48:04;8.07;;;6.60;;
39956;SDS011;48483;44.640;7.494;2024-03-02T13:50:32;9.25;;;7.40;;
39956;SDS011;48483;44.640;7.494;2024-03-02T13:53:00;8.88;;;6.43;;
39956;SDS011;48483;44.640;7.494;2024-03-02T13:55:26;12.48;;;8.02;;
39956;SDS011;48483;44.640;7.494;2024-03-02T13:57:53;10.23;;;7.38;;
39956;SDS011;48483;44.640;7.494;2024-03-02T14:00:20;9.27;;;6.95;;
39956;SDS011;48483;44.640;7.494;2024-03-02T14:02:47;10.32;;;8.05;;
39956;SDS011;48483;44.640;7.494;2024-03-02T14:05:16;10.90;;;7.55;;
39956;SDS011;48483;44.640;7.494;2024-03-02T14:07:42;10.23;;;7.43;;
39956;SDS011;48483;44.640;7.494;2024-03-02T14:10:11;10.98;;;7.72;;
39956;SDS011;48483;44.640;7.494;2024-03-02T14:12:38;9.43;;;6.97;;
39956;SDS011;48483;44.640;7.494;2024-03-02T14:15:05;11.13;;;8.07;;
39956;SDS011;48483;44.640;7.494;2024-03-02T14:17:32;11.05;;;6.90;;
39956;SDS011;48483;44.640;7.494;2024-03-02T14:20:00;9.50;;;7.10;;
39956;SDS011;48483;44.640;7.494;2024-03-02T14:22:26;10.13;;;7.90;;
39956;SDS011;48483;44.640;7.494;2024-03-02T14:24:53;11.13;;;7.75;;
39956;SDS011;48483;44.640;7.494;2024-03-02T14:27:21;10.85;;;7.18;;
39956;SDS011;48483;44.640;7.494;2024-03-02T14:29:48;6.65;;;4.75;;
39956;SDS011;48483;44.640;7.494;2024-03-02T14:32:14;7.60;;;4.57;;
39956;SDS011;48483;44.640;7.494;2024-03-02T14:34:41;7.78;;;5.05;;
39956;SDS011;48483;44.640;7.494;2024-03-02T14:37:08;7.93;;;3.83;;
39956;SDS011;48483;44.640;7.494;2024-03-02T14:39:34;8.55;;;5.70;;
39956;SDS011;48483;44.640;7.494;2024-03-02T14:42:02;9.35;;;7.07;;
39956;SDS011;48483;44.640;7.494;2024-03-02T14:44:30;9.88;;;7.10;;
39956;SDS011;48483;44.640;7.494;2024-03-02T14:46:57;9.35;;;7.40;;
39956;SDS011;48483;44.640;7.494;2024-03-02T14:49:24;10.40;;;8.10;;
39956;SDS011;48483;44.640;7.494;2024-03-02T14:51:51;11.57;;;9.20;;
39956;SDS011;48483;44.640;7.494;2024-03-02T14:54:18;12.00;;;9.50;;
39956;SDS011;48483;44.640;7.494;2024-03-02T14:56:45;10.10;;;8.93;;
39956;SDS011;48483;44.640;7.494;2024-03-02T14:59:12;11.65;;;9.55;;
39956;SDS011;48483;44.640;7.494;2024-03-02T15:01:40;13.00;;;9.15;;
39956;SDS011;48483;44.640;7.494;2024-03-02T15:04:07;11.70;;;8.73;;
39956;SDS011;48483;44.640;7.494;2024-03-02T15:06:34;10.52;;;7.80;;
39956;SDS011;48483;44.640;7.494;2024-03-02T15:09:00;8.98;;;6.93;;
39956;SDS011;48483;44.640;7.494;2024-03-02T15:11:27;9.10;;;6.43;;
39956;SDS011;48483;44.640;7.494;2024-03-02T15:13:54;9.00;;;6.20;;
39956;SDS011;48483;44.640;7.494;2024-03-02T15:16:21;9.00;;;5.85;;
39956;SDS011;48483;44.640;7.494;2024-03-02T15:18:49;7.40;;;5.82;;
39956;SDS011;48483;44.640;7.494;2024-03-02T15:21:15;7.35;;;5.72;;